Time;durP1;ratioP1;P1;durP2;ratioP2;P2;SDS_P1;SDS_P2;PMS_P1;PMS_P2;Temp;Humidity;BMP_temperature;BMP_pressure;BME280_temperature;BME280_humidity;BME280_pressure;Samples;Min_cycle;Max_cycle;Signal;HPM_P1;HPM_P2
2022/04/19 00:00:22;;;;;;;6.60;3.70;;;14.40;76.20;;;;;;5050049;28;20433;-80
2022/04/19 00:02:47;;;;;;;6.95;3.88;;;14.40;76.20;;;;;;5049571;28;20080;-81
2022/04/19 00:05:13;;;;;;;6.93;4.07;;;14.40;76.40;;;;;;5046652;28;20397;-80
2022/04/19 00:07:41;;;;;;;6.53;3.47;;;14.40;76.30;;;;;;5054196;28;20076;-80
2022/04/19 00:10:08;;;;;;;7.28;3.65;;;14.40;76.30;;;;;;5046866;28;20462;-82
2022/04/19 00:12:33;;;;;;;8.13;4.10;;;14.40;76.50;;;;;;5053724;28;20044;-80
2022/04/19 00:15:00;;;;;;;7.40;3.92;;;14.40;76.50;;;;;;5052748;28;20033;-78
2022/04/19 00:17:25;;;;;;;6.32;3.70;;;14.40;76.50;;;;;;5067072;28;20107;-81
2022/04/19 00:19:51;;;;;;;6.38;3.70;;;14.40;76.50;;;;;;5063943;28;20044;-80
2022/04/19 00:22:19;;;;;;;7.13;3.92;;;14.40;76.50;;;;;;5039441;28;20033;-81
2022/04/19 00:24:45;;;;;;;6.97;4.18;;;14.40;76.50;;;;;;5047137;28;20025;-81
2022/04/19 00:27:10;;;;;;;8.18;4.05;;;14.40;76.60;;;;;;5051404;28;20075;-79
2022/04/19 00:29:37;;;;;;;7.32;4.32;;;14.40;76.50;;;;;;5042060;28;20029;-80
2022/04/19 00:32:03;;;;;;;7.43;3.92;;;14.40;76.50;;;;;;5050831;28;20402;-78
2022/04/19 00:34:29;;;;;;;7.60;4.28;;;14.40;76.50;;;;;;5046227;28;20036;-81
2022/04/19 00:36:54;;;;;;;6.20;3.80;;;14.40;76.50;;;;;;5045831;28;20023;-81
2022/04/19 00:39:20;;;;;;;7.20;4.22;;;14.40;76.60;;;;;;5048269;28;20064;-82
2022/04/19 00:41:47;;;;;;;7.20;3.85;;;14.40;76.50;;;;;;5042911;28;20028;-81
2022/04/19 00:44:12;;;;;;;6.80;4.18;;;14.40;76.50;;;;;;5045826;28;20021;-81
2022/04/19 00:46:38;;;;;;;7.78;4.20;;;14.40;76.50;;;;;;5040379;28;20486;-80
2022/04/19 00:49:03;;;;;;;6.28;3.83;;;14.40;76.50;;;;;;5066029;28;20029;-78
2022/04/19 00:51:31;;;;;;;6.70;3.95;;;14.30;76.50;;;;;;5040450;28;20021;-81
2022/04/19 00:53:57;;;;;;;6.80;4.07;;;14.40;76.50;;;;;;5048095;28;20035;-80
2022/04/19 00:56:23;;;;;;;6.40;3.90;;;14.40;76.60;;;;;;5044875;28;20103;-81
2022/04/19 00:58:48;;;;;;;7.18;4.22;;;14.40;76.60;;;;;;5058903;28;20066;-82
2022/04/19 01:01:15;;;;;;;8.38;4.25;;;14.40;76.50;;;;;;5050481;28;20120;-81
2022/04/19 01:03:41;;;;;;;7.35;4.47;;;14.40;76.50;;;;;;5052356;28;20477;-82
2022/04/19 01:06:06;;;;;;;6.55;4.05;;;14.40;76.50;;;;;;5057376;28;20028;-80
2022/04/19 01:08:32;;;;;;;6.70;4.10;;;14.40;76.50;;;;;;5061122;28;20013;-81
2022/04/19 01:13:42;;;;;;;7.63;5.07;;;14.40;76.40;;;;;;5053609;28;20027;-80
2022/04/19 01:16:08;;;;;;;7.35;4.80;;;14.40;76.40;;;;;;5050568;28;20017;-80
2022/04/19 01:18:35;;;;;;;7.68;4.30;;;14.40;76.30;;;;;;5050540;28;20028;-80
2022/04/19 01:21:01;;;;;;;6.68;4.28;;;14.40;76.30;;;;;;5062443;28;20023;-80
2022/04/19 01:23:28;;;;;;;6.60;4.28;;;14.50;76.30;;;;;;5055214;28;20024;-80
2022/04/19 01:25:54;;;;;;;7.30;4.40;;;14.50;76.30;;;;;;5048578;28;20045;-79
2022/04/19 01:28:20;;;;;;;7.05;4.10;;;14.50;76.20;;;;;;5053765;28;20101;-80
2022/04/19 01:30:52;;;;;;;6.57;4.40;;;14.60;76.10;;;;;;5054391;28;20057;-80
2022/04/19 01:33:18;;;;;;;7.82;4.60;;;14.60;76.00;;;;;;5037384;28;20030;-79
2022/04/19 01:35:43;;;;;;;7.35;4.55;;;14.60;75.80;;;;;;5064898;28;20126;-80
2022/04/19 01:38:09;;;;;;;7.38;4.22;;;14.60;75.80;;;;;;5051619;28;20074;-81
2022/04/19 01:40:34;;;;;;;7.05;4.50;;;14.60;75.80;;;;;;5054192;28;20060;-80
2022/04/19 01:43:02;;;;;;;7.18;4.45;;;14.60;75.70;;;;;;5041576;28;20043;-80
2022/04/19 01:45:30;;;;;;;7.00;4.10;;;14.60;76.20;;;;;;5042948;28;20112;-80
2022/04/19 01:47:57;;;;;;;7.45;4.07;;;14.60;75.70;;;;;;5048665;28;20027;-79
2022/04/19 01:50:26;;;;;;;6.88;4.30;;;14.60;75.60;;;;;;5057692;28;20029;-80
2022/04/19 01:52:53;;;;;;;7.25;4.47;;;14.60;75.60;;;;;;5052908;28;20028;-81
2022/04/19 01:55:20;;;;;;;6.57;4.18;;;14.60;75.60;;;;;;5051977;28;20029;-79
2022/04/19 01:57:48;;;;;;;7.22;4.47;;;14.60;75.70;;;;;;5053209;28;20397;-81
2022/04/19 02:00:15;;;;;;;6.82;4.45;;;14.50;75.80;;;;;;5038709;28;20466;-81
2022/04/19 02:02:43;;;;;;;6.82;4.20;;;14.50;75.90;;;;;;5051693;28;20056;-81
2022/04/19 02:05:09;;;;;;;7.22;4.80;;;14.50;76.00;;;;;;5059289;28;20073;-81
2022/04/19 02:07:38;;;;;;;7.22;4.72;;;14.50;76.10;;;;;;5041132;28;20387;-81
2022/04/19 02:10:05;;;;;;;7.40;4.60;;;14.40;76.20;;;;;;5047102;28;20158;-80
2022/04/19 02:12:31;;;;;;;6.63;4.18;;;14.40;76.30;;;;;;5049769;28;20025;-80
2022/04/19 02:14:57;;;;;;;7.35;4.82;;;14.40;76.30;;;;;;5040974;28;20057;-81
2022/04/19 02:17:23;;;;;;;6.22;4.47;;;14.40;76.40;;;;;;5051738;28;20035;-80
2022/04/19 02:19:59;;;;;;;7.95;4.97;;;14.40;76.40;;;;;;5041682;28;20048;-80
2022/04/19 02:22:26;;;;;;;7.93;5.00;;;14.40;76.50;;;;;;5030824;28;20048;-81
2022/04/19 02:24:53;;;;;;;7.22;4.60;;;14.40;76.50;;;;;;5046992;28;20515;-79
2022/04/19 02:27:18;;;;;;;9.85;5.28;;;14.30;76.50;;;;;;5037018;28;20118;-80
2022/04/19 02:29:44;;;;;;;7.05;4.55;;;14.40;76.60;;;;;;5040718;28;20089;-80
2022/04/19 02:32:09;;;;;;;7.70;5.22;;;14.40;76.70;;;;;;5059987;28;20106;-79
2022/04/19 02:34:35;;;;;;;6.97;4.88;;;14.40;76.60;;;;;;5065948;28;20025;-80
2022/04/19 02:37:00;;;;;;;8.70;5.60;;;14.40;76.70;;;;;;5053921;28;20113;-80
2022/04/19 02:39:26;;;;;;;7.60;4.72;;;14.30;76.70;;;;;;5053263;28;20521;-81
2022/04/19 02:41:53;;;;;;;8.18;5.30;;;14.40;76.70;;;;;;5045613;28;20028;-79
2022/04/19 02:44:18;;;;;;;7.97;5.13;;;14.40;76.80;;;;;;5046640;28;20033;-81
2022/04/19 02:46:44;;;;;;;7.68;4.72;;;14.30;76.80;;;;;;5060909;28;20079;-80
2022/04/19 02:49:09;;;;;;;8.85;5.63;;;14.30;76.80;;;;;;5052629;28;20652;-80
2022/04/19 02:51:35;;;;;;;8.38;5.38;;;14.30;76.70;;;;;;5053159;28;20108;-81
2022/04/19 02:54:01;;;;;;;7.50;4.97;;;14.30;76.70;;;;;;5052423;28;20132;-79
2022/04/19 02:56:27;;;;;;;7.75;5.30;;;14.30;76.80;;;;;;5053224;28;20029;-80
2022/04/19 02:58:52;;;;;;;8.60;5.30;;;14.30;76.80;;;;;;5054097;28;20404;-80
2022/04/19 03:01:18;;;;;;;8.05;5.13;;;14.20;76.80;;;;;;5051492;28;20095;-81
2022/04/19 03:03:44;;;;;;;8.45;5.85;;;14.30;76.80;;;;;;5055552;28;20029;-79
2022/04/19 03:06:10;;;;;;;7.82;5.35;;;14.30;76.70;;;;;;5065520;28;20036;-81
2022/04/19 03:08:36;;;;;;;8.77;5.57;;;14.30;76.80;;;;;;5056094;28;20021;-80
2022/04/19 03:11:04;;;;;;;8.25;5.53;;;14.30;76.70;;;;;;5052816;28;20078;-79
2022/04/19 03:13:33;;;;;;;8.35;5.60;;;14.30;76.70;;;;;;5059479;28;20029;-81
2022/04/19 03:15:58;;;;;;;7.75;5.45;;;14.20;77.20;;;;;;5052495;28;20028;-81
2022/04/19 03:18:24;;;;;;;8.50;5.40;;;14.30;76.80;;;;;;5044886;28;20025;-80
2022/04/19 03:20:50;;;;;;;8.10;5.22;;;14.30;76.80;;;;;;5046319;28;20491;-81
2022/04/19 03:28:48;;;;;;;7.47;5.05;;;14.30;76.80;;;;;;5054347;28;20048;-79
2022/04/19 03:31:14;;;;;;;8.23;5.65;;;14.30;76.80;;;;;;5060925;28;20021;-79
2022/04/19 03:33:40;;;;;;;8.77;5.30;;;14.30;76.80;;;;;;5069139;28;20096;-81
2022/04/19 03:36:08;;;;;;;9.32;6.03;;;14.30;76.80;;;;;;5052334;28;20171;-80
2022/04/19 03:38:34;;;;;;;9.20;6.15;;;14.30;76.80;;;;;;5051913;28;20102;-79
2022/04/19 03:40:59;;;;;;;7.97;5.63;;;14.30;76.80;;;;;;5032950;28;20414;-81
2022/04/19 03:43:25;;;;;;;7.97;5.25;;;14.30;76.70;;;;;;5046456;28;20030;-80
2022/04/19 03:45:51;;;;;;;8.40;5.70;;;14.30;76.50;;;;;;5051076;28;20028;-81
2022/04/19 03:48:16;;;;;;;8.00;5.30;;;14.30;76.50;;;;;;5050716;28;20082;-80
2022/04/19 03:50:42;;;;;;;8.38;5.53;;;14.30;76.50;;;;;;5064695;28;20029;-80
2022/04/19 03:53:08;;;;;;;7.60;5.25;;;14.40;76.50;;;;;;5045437;28;20036;-80
2022/04/19 03:55:33;;;;;;;7.05;4.72;;;14.40;76.50;;;;;;5044662;28;20024;-81
2022/04/19 03:57:59;;;;;;;8.63;5.60;;;14.50;76.40;;;;;;5052277;28;20036;-78
2022/04/19 04:00:25;;;;;;;7.95;5.15;;;14.50;76.30;;;;;;5056490;28;20059;-81
2022/04/19 04:02:50;;;;;;;7.80;5.18;;;14.50;76.20;;;;;;5056153;28;20036;-80
2022/04/19 04:05:17;;;;;;;7.50;4.97;;;14.50;76.10;;;;;;5053169;28;20089;-79
2022/04/19 04:07:42;;;;;;;8.55;5.82;;;14.50;76.00;;;;;;5068413;28;20012;-80
2022/04/19 04:10:08;;;;;;;8.43;5.43;;;14.50;76.00;;;;;;5063706;28;20029;-79
2022/04/19 04:12:34;;;;;;;8.25;5.15;;;14.50;75.90;;;;;;5051999;28;20021;-80
2022/04/19 04:15:01;;;;;;;8.18;5.30;;;14.50;75.90;;;;;;5047434;28;20025;-81
2022/04/19 04:17:26;;;;;;;7.70;5.35;;;14.50;75.90;;;;;;5051194;28;20028;-80
2022/04/19 04:19:52;;;;;;;8.13;5.20;;;14.50;75.90;;;;;;5052541;28;20413;-80
2022/04/19 04:22:17;;;;;;;7.82;5.47;;;14.50;75.90;;;;;;5068474;28;20491;-80
2022/04/19 04:24:43;;;;;;;8.50;5.70;;;14.50;75.90;;;;;;5072159;28;20025;-81
2022/04/19 04:27:08;;;;;;;8.15;5.40;;;14.50;75.90;;;;;;5051749;28;20426;-80
2022/04/19 04:29:34;;;;;;;8.32;5.45;;;14.40;75.90;;;;;;5043545;28;20025;-81
2022/04/19 04:31:59;;;;;;;8.25;5.30;;;14.40;76.00;;;;;;5046614;28;20489;-81
2022/04/19 04:34:25;;;;;;;7.93;5.40;;;14.40;76.10;;;;;;5054384;28;20027;-80
2022/04/19 04:36:51;;;;;;;7.32;4.63;;;14.40;76.30;;;;;;5057945;28;20120;-81
2022/04/19 04:39:17;;;;;;;8.60;5.38;;;14.30;76.30;;;;;;5052690;28;20474;-82
2022/04/19 04:41:45;;;;;;;7.97;5.40;;;14.30;76.50;;;;;;5051748;28;20030;-80
2022/04/19 04:44:11;;;;;;;8.30;5.63;;;14.40;76.60;;;;;;5057391;28;20123;-81
2022/04/19 04:49:35;;;;;;;7.57;5.18;;;14.30;76.50;;;;;;5052541;28;20619;-81
2022/04/19 04:52:01;;;;;;;8.38;5.22;;;14.30;76.70;;;;;;5054017;28;20040;-83
2022/04/19 04:54:27;;;;;;;8.18;5.70;;;14.30;76.70;;;;;;5061210;28;20100;-83
2022/04/19 04:56:53;;;;;;;8.60;5.85;;;14.30;76.70;;;;;;5043202;28;20805;-83
2022/04/19 04:59:18;;;;;;;8.32;5.45;;;14.30;76.70;;;;;;5047663;28;20036;-82
2022/04/19 05:01:44;;;;;;;7.88;5.35;;;14.20;76.70;;;;;;5050283;28;20031;-80
2022/04/19 05:04:09;;;;;;;7.78;5.60;;;14.30;76.80;;;;;;5049746;28;20029;-84
2022/04/19 05:06:35;;;;;;;9.55;5.40;;;14.30;76.80;;;;;;5050757;28;20133;-83
2022/04/19 05:09:00;;;;;;;8.35;5.70;;;14.30;76.80;;;;;;5051514;28;20100;-83
2022/04/19 05:11:26;;;;;;;8.05;5.55;;;14.40;76.80;;;;;;5050355;28;20025;-84
2022/04/19 05:13:51;;;;;;;8.75;5.63;;;14.30;76.90;;;;;;5050499;28;20408;-83
2022/04/19 05:16:17;;;;;;;8.43;5.65;;;14.30;76.90;;;;;;5056301;28;20013;-82
2022/04/19 05:18:42;;;;;;;7.88;5.28;;;14.30;76.80;;;;;;5030800;28;20028;-81
2022/04/19 05:21:08;;;;;;;7.72;5.43;;;14.30;76.80;;;;;;5031114;28;20025;-82
2022/04/19 05:23:34;;;;;;;8.13;5.75;;;14.30;76.80;;;;;;5046776;28;20024;-81
2022/04/19 05:25:59;;;;;;;7.90;5.28;;;14.30;76.80;;;;;;5050013;28;20025;-82
2022/04/19 05:28:25;;;;;;;9.30;5.93;;;14.30;76.80;;;;;;5066779;28;20070;-82
2022/04/19 05:30:50;;;;;;;8.80;5.95;;;14.30;76.80;;;;;;5069716;28;20039;-82
2022/04/19 05:33:16;;;;;;;7.95;5.60;;;14.30;76.80;;;;;;5070553;28;20021;-82
2022/04/19 05:35:41;;;;;;;10.63;5.45;;;14.30;76.70;;;;;;5070681;28;20028;-82
2022/04/19 05:38:07;;;;;;;8.20;5.65;;;14.20;76.70;;;;;;5041964;28;20040;-82
2022/04/19 05:40:32;;;;;;;9.52;5.55;;;14.30;76.70;;;;;;5051409;28;20101;-81
2022/04/19 05:42:58;;;;;;;8.27;5.63;;;14.30;76.70;;;;;;5050967;28;20058;-80
2022/04/19 05:45:23;;;;;;;8.55;5.97;;;14.30;76.60;;;;;;5051248;28;20025;-80
2022/04/19 05:47:49;;;;;;;8.77;5.90;;;14.30;76.60;;;;;;5056186;28;20025;-79
2022/04/19 05:50:14;;;;;;;9.02;5.78;;;14.30;76.50;;;;;;5050848;28;20032;-80
2022/04/19 05:52:40;;;;;;;7.93;5.32;;;14.30;76.50;;;;;;5044382;28;20038;-79
2022/04/19 05:55:06;;;;;;;9.75;6.32;;;14.30;76.50;;;;;;5050782;28;20025;-81
2022/04/19 05:57:31;;;;;;;8.30;5.68;;;14.30;76.40;;;;;;5035621;28;20257;-80
2022/04/19 05:59:57;;;;;;;8.63;5.35;;;14.30;76.40;;;;;;5045179;28;20597;-80
2022/04/19 06:05:07;;;;;;;9.20;6.20;;;14.40;76.20;;;;;;5063720;28;20084;-80
2022/04/19 06:07:41;;;;;;;8.90;6.03;;;14.40;76.20;;;;;;5051088;28;20075;-81
2022/04/19 06:10:07;;;;;;;8.75;6.22;;;14.40;76.10;;;;;;5046533;28;20323;-80
2022/04/19 06:12:32;;;;;;;9.32;5.70;;;14.40;76.00;;;;;;5039071;28;20502;-80
2022/04/19 06:14:58;;;;;;;8.90;5.88;;;14.40;76.00;;;;;;5033049;28;20025;-81
2022/04/19 06:17:27;;;;;;;8.35;5.78;;;14.40;75.90;;;;;;5056483;28;20033;-80
2022/04/19 06:19:52;;;;;;;7.95;5.60;;;14.40;75.80;;;;;;5052405;28;20021;-78
2022/04/19 06:22:18;;;;;;;9.20;6.10;;;14.50;75.80;;;;;;5054370;28;20108;-80
2022/04/19 06:24:43;;;;;;;8.23;5.90;;;14.50;75.60;;;;;;5053289;28;20057;-80
2022/04/19 06:27:09;;;;;;;15.43;6.72;;;14.50;75.60;;;;;;5052439;28;20020;-79
2022/04/19 06:29:34;;;;;;;11.90;6.40;;;14.50;75.30;;;;;;5051602;28;20956;-77
2022/04/19 06:32:00;;;;;;;11.75;6.53;;;14.60;75.20;;;;;;5067901;28;20024;-79
2022/04/19 06:34:25;;;;;;;10.88;6.13;;;14.60;75.00;;;;;;5073704;28;20172;-77
2022/04/19 06:36:51;;;;;;;10.73;6.22;;;14.60;74.80;;;;;;5056427;28;20029;-78
2022/04/19 06:39:16;;;;;;;11.32;6.10;;;14.70;74.70;;;;;;5047126;28;20048;-78
2022/04/19 06:41:43;;;;;;;10.65;6.53;;;14.70;74.60;;;;;;5053420;28;20036;-78
2022/04/19 06:44:09;;;;;;;10.80;6.10;;;14.70;74.60;;;;;;5051598;28;20095;-79
2022/04/19 06:46:36;;;;;;;11.85;5.90;;;14.70;74.60;;;;;;5046569;28;20033;-79
2022/04/19 06:49:03;;;;;;;9.75;6.05;;;14.80;74.60;;;;;;5031736;28;20766;-78
2022/04/19 06:51:30;;;;;;;11.48;6.57;;;14.80;74.50;;;;;;5035410;28;20025;-77
2022/04/19 06:53:56;;;;;;;9.15;5.82;;;14.80;74.60;;;;;;5051433;28;20516;-78
2022/04/19 06:56:21;;;;;;;10.02;6.18;;;14.80;74.50;;;;;;5051793;28;20028;-79
2022/04/19 06:58:48;;;;;;;11.30;6.28;;;14.80;74.50;;;;;;5052404;28;20037;-80
2022/04/19 07:01:14;;;;;;;11.02;6.13;;;14.80;74.40;;;;;;5057033;28;20096;-78
2022/04/19 07:03:39;;;;;;;13.05;5.55;;;14.80;74.40;;;;;;5072422;28;20123;-77
2022/04/19 07:06:06;;;;;;;10.05;6.20;;;14.80;74.40;;;;;;5071474;28;20056;-79
2022/04/19 07:08:32;;;;;;;8.70;5.65;;;14.80;74.40;;;;;;5058420;28;20843;-79
2022/04/19 07:10:58;;;;;;;9.95;6.13;;;14.80;74.40;;;;;;5052703;28;20033;-79
2022/04/19 07:13:24;;;;;;;11.00;6.05;;;14.80;74.40;;;;;;5067036;28;20020;-79
2022/04/19 07:15:50;;;;;;;10.52;6.40;;;14.80;74.50;;;;;;5051027;28;20493;-79
2022/04/19 07:18:17;;;;;;;10.38;6.07;;;14.80;74.50;;;;;;5053391;28;20025;-80
2022/04/19 07:28:55;;;;;;;9.80;6.32;;;14.80;74.70;;;;;;5051134;28;20032;-80
2022/04/19 07:31:21;;;;;;;9.02;5.88;;;14.80;74.70;;;;;;5050022;28;20017;-79
2022/04/19 07:33:46;;;;;;;9.82;6.38;;;14.90;74.80;;;;;;5069055;28;20539;-79
2022/04/19 07:36:12;;;;;;;8.15;5.40;;;14.90;74.70;;;;;;5064380;28;20028;-79
2022/04/19 07:38:38;;;;;;;9.20;6.32;;;14.90;74.70;;;;;;5048841;28;20025;-78
2022/04/19 07:41:04;;;;;;;9.43;6.00;;;14.90;74.50;;;;;;5048359;28;20064;-78
2022/04/19 07:43:30;;;;;;;15.18;6.88;;;14.90;74.50;;;;;;5048870;28;20034;-79
2022/04/19 07:45:56;;;;;;;8.93;6.10;;;15.00;74.50;;;;;;5056493;28;20024;-77
2022/04/19 07:48:22;;;;;;;9.68;5.93;;;14.90;74.40;;;;;;5069948;28;20024;-79
2022/04/19 07:50:47;;;;;;;9.00;5.68;;;15.00;74.40;;;;;;5068290;28;20111;-78
2022/04/19 07:53:13;;;;;;;8.98;5.88;;;15.00;74.40;;;;;;5051635;28;20540;-79
2022/04/19 07:55:39;;;;;;;8.55;5.80;;;15.00;74.40;;;;;;5038193;28;20064;-78
2022/04/19 07:58:04;;;;;;;9.15;6.18;;;15.00;74.40;;;;;;5063323;28;20560;-78
2022/04/19 08:00:30;;;;;;;9.48;5.78;;;15.00;74.40;;;;;;5029710;28;20041;-79
2022/04/19 08:02:57;;;;;;;9.82;5.97;;;15.00;74.30;;;;;;5029435;28;20428;-79
2022/04/19 08:05:23;;;;;;;9.13;5.93;;;15.10;74.30;;;;;;5029747;28;20018;-79
2022/04/19 08:07:49;;;;;;;11.02;6.40;;;15.10;74.30;;;;;;5048576;28;20036;-79
2022/04/19 08:10:16;;;;;;;8.63;5.95;;;15.10;74.30;;;;;;5047876;28;20375;-79
2022/04/19 08:12:41;;;;;;;10.80;6.55;;;15.10;74.20;;;;;;5049041;28;20021;-79
2022/04/19 08:15:08;;;;;;;9.00;6.25;;;15.10;74.20;;;;;;5049237;28;20025;-77
2022/04/19 08:17:34;;;;;;;9.93;6.10;;;15.20;74.20;;;;;;5035701;28;20025;-79
2022/04/19 08:20:01;;;;;;;9.85;6.40;;;15.10;74.20;;;;;;5029368;28;20044;-78
2022/04/19 08:22:27;;;;;;;10.95;7.22;;;15.20;74.10;;;;;;5027384;28;20098;-80
2022/04/19 08:24:53;;;;;;;10.27;6.63;;;15.20;74.10;;;;;;5028083;28;20025;-80
2022/04/19 08:27:19;;;;;;;10.32;7.03;;;15.20;74.10;;;;;;5028923;28;20032;-79
2022/04/19 08:29:45;;;;;;;9.88;7.20;;;15.20;74.00;;;;;;5028021;28;20041;-79
2022/04/19 08:32:11;;;;;;;10.00;7.45;;;15.20;73.90;;;;;;5028694;28;20025;-79
2022/04/19 08:34:37;;;;;;;11.05;7.03;;;15.30;74.00;;;;;;5029123;28;20418;-77
2022/04/19 08:37:04;;;;;;;10.60;7.63;;;15.30;74.00;;;;;;5035840;28;20030;-79
2022/04/19 08:39:29;;;;;;;11.27;7.25;;;15.30;74.00;;;;;;5027799;28;20025;-77
2022/04/19 08:41:55;;;;;;;10.13;7.00;;;15.30;73.90;;;;;;5028638;28;20030;-80
2022/04/19 08:44:20;;;;;;;11.18;7.50;;;15.30;73.80;;;;;;5028544;28;20040;-79
2022/04/19 08:46:46;;;;;;;11.95;7.63;;;15.30;73.80;;;;;;5042584;28;20032;-79
2022/04/19 08:49:12;;;;;;;12.43;8.20;;;15.30;73.80;;;;;;5027723;28;20029;-78
2022/04/19 08:51:40;;;;;;;11.50;7.53;;;15.30;73.70;;;;;;5028746;28;20030;-79
2022/04/19 08:59:36;;;;;;;11.73;7.93;;;15.40;73.70;;;;;;5052390;28;20056;-80
2022/04/19 09:02:02;;;;;;;12.30;7.93;;;15.40;73.50;;;;;;5048054;28;20033;-78
2022/04/19 09:04:28;;;;;;;11.45;7.90;;;15.50;73.50;;;;;;5042598;28;20486;-79
2022/04/19 09:06:58;;;;;;;10.90;7.70;;;15.50;73.30;;;;;;5043627;28;20032;-79
2022/04/19 09:09:29;;;;;;;10.10;7.05;;;15.50;73.20;;;;;;5058428;28;20028;-79
2022/04/19 09:12:11;;;;;;;10.52;7.53;;;15.60;73.20;;;;;;5066873;28;20029;-79
2022/04/19 09:14:37;;;;;;;;;;;15.60;73.10;;;;;;5067276;28;20040;-79
2022/04/19 09:17:05;;;;;;;10.68;6.97;;;15.60;73.00;;;;;;5049544;28;19928;-79
2022/04/19 09:19:30;;;;;;;10.30;7.35;;;15.60;73.10;;;;;;5049987;28;20075;-79
2022/04/19 09:21:57;;;;;;;10.60;7.15;;;15.60;73.00;;;;;;5066637;28;20464;-80
2022/04/19 09:24:23;;;;;;;11.57;7.93;;;15.70;73.00;;;;;;5066759;28;20136;-79
2022/04/19 09:26:49;;;;;;;11.82;8.05;;;15.70;73.00;;;;;;5059850;28;20257;-78
2022/04/19 09:29:21;;;;;;;10.18;7.18;;;15.70;72.90;;;;;;5046485;28;20480;-79
2022/04/19 09:31:47;;;;;;;;;;;15.70;72.70;;;;;;5047244;28;20024;-79
2022/04/19 09:34:30;;;;;;;9.85;7.43;;;15.70;72.80;;;;;;5047897;28;19904;-80
2022/04/19 09:37:12;;;;;;;10.68;7.35;;;15.70;73.00;;;;;;5046811;28;20029;-80
2022/04/19 09:39:39;;;;;;;11.40;7.90;;;15.60;73.00;;;;;;5046885;28;20025;-80
2022/04/19 09:42:08;;;;;;;10.85;7.38;;;15.60;73.10;;;;;;5047744;28;20032;-79
2022/04/19 09:44:49;;;;;;;10.68;7.32;;;15.60;73.20;;;;;;5050868;28;20590;-79
2022/04/19 09:47:14;;;;;;;9.77;7.20;;;15.60;73.20;;;;;;5050729;28;20029;-80
2022/04/19 09:49:44;;;;;;;9.60;6.82;;;15.70;73.30;;;;;;5052196;28;20036;-80
2022/04/19 09:52:13;;;;;;;10.18;6.97;;;15.70;73.20;;;;;;5051813;28;20025;-80
2022/04/19 09:54:40;;;;;;;9.43;6.63;;;15.70;73.20;;;;;;5050521;28;20029;-80
2022/04/19 09:57:11;;;;;;;10.45;7.22;;;15.70;73.20;;;;;;5057362;28;20112;-80
2022/04/19 09:59:44;;;;;;;10.25;7.45;;;15.70;73.20;;;;;;5050697;28;20132;-81
2022/04/19 10:10:26;;;;;;;9.57;6.53;;;15.70;73.70;;;;;;5074026;28;20641;-81
2022/04/19 10:12:53;;;;;;;9.68;6.88;;;15.70;73.10;;;;;;5070511;28;20032;-81
2022/04/19 10:15:20;;;;;;;9.88;6.20;;;15.70;73.10;;;;;;5071578;28;20029;-82
2022/04/19 10:17:46;;;;;;;9.38;6.43;;;15.70;73.10;;;;;;5071389;28;20029;-78
2022/04/19 10:20:13;;;;;;;9.30;6.60;;;15.70;73.10;;;;;;5070211;28;20124;-80
2022/04/19 10:22:49;;;;;;;9.35;6.25;;;15.70;73.00;;;;;;5065965;28;20039;-80
2022/04/19 10:25:15;;;;;;;9.32;6.20;;;15.70;73.00;;;;;;5049949;28;20079;-79
2022/04/19 10:27:42;;;;;;;8.40;5.97;;;15.70;73.00;;;;;;5051248;28;20083;-81
2022/04/19 10:30:15;;;;;;;9.38;6.45;;;15.70;73.00;;;;;;5051355;28;20021;-78
2022/04/19 10:32:40;;;;;;;7.90;5.55;;;15.70;73.00;;;;;;5050860;28;20053;-80
2022/04/19 10:35:06;;;;;;;9.23;6.47;;;15.70;72.90;;;;;;5051155;28;20117;-80
2022/04/19 10:37:32;;;;;;;9.52;6.50;;;15.70;72.90;;;;;;5046138;28;20049;-80
2022/04/19 10:39:58;;;;;;;8.98;6.28;;;15.70;72.90;;;;;;5051272;28;20029;-81
2022/04/19 10:42:34;;;;;;;8.43;5.88;;;15.70;72.90;;;;;;5048252;28;20024;-81
2022/04/19 10:45:12;;;;;;;8.52;5.93;;;15.80;73.00;;;;;;5045363;28;20818;-80
2022/04/19 10:47:53;;;;;;;8.00;5.18;;;15.70;72.80;;;;;;5049344;28;20025;-80
2022/04/19 10:50:35;;;;;;;;;;;15.70;72.90;;;;;;5051487;28;20081;-80
2022/04/19 10:53:05;;;;;;;8.52;5.22;;;15.70;73.40;;;;;;5051052;28;19909;-80
2022/04/19 10:55:56;;;;;;;7.80;4.88;;;15.80;73.00;;;;;;5050273;28;20033;-80
2022/04/19 10:58:41;;;;;;;7.95;5.38;;;15.80;72.90;;;;;;5035268;28;20036;-80
2022/04/19 11:01:26;;;;;;;7.35;4.75;;;15.80;73.00;;;;;;5051748;28;20032;-80
2022/04/19 11:03:52;;;;;;;8.23;5.35;;;15.80;72.90;;;;;;5050190;28;20025;-80
2022/04/19 11:06:31;;;;;;;7.57;5.28;;;15.80;73.00;;;;;;5049771;28;20512;-80
2022/04/19 11:09:26;;;;;;;7.55;4.95;;;15.80;72.90;;;;;;5046041;28;20018;-80
2022/04/19 11:11:53;;;;;;;7.70;5.05;;;15.80;73.00;;;;;;5042533;28;20033;-79
2022/04/19 11:14:21;;;;;;;7.53;5.03;;;15.80;73.00;;;;;;5069904;28;20647;-79
2022/04/19 11:16:50;;;;;;;7.75;5.13;;;15.80;73.00;;;;;;5069282;28;20028;-80
2022/04/19 11:19:21;;;;;;;8.30;5.15;;;15.80;72.90;;;;;;5071012;28;20023;-80
2022/04/19 11:21:59;;;;;;;7.05;4.50;;;15.80;72.90;;;;;;5065567;28;20025;-80
2022/04/19 11:24:59;;;;;;;9.80;4.93;;;15.80;73.30;;;;;;5050840;28;20040;-80
2022/04/19 11:27:54;;;;;;;10.40;4.90;;;15.80;72.50;;;;;;5050407;28;20048;-81
2022/04/19 11:30:20;;;;;;;14.10;4.57;;;15.90;72.20;;;;;;5051100;28;20023;-81
2022/04/19 11:32:50;;;;;;;12.65;5.40;;;15.90;72.00;;;;;;5032785;28;20035;-82
2022/04/19 11:35:17;;;;;;;11.48;4.82;;;15.90;72.00;;;;;;5043564;28;20028;-81
2022/04/19 11:37:43;;;;;;;11.00;5.32;;;15.90;72.00;;;;;;5054670;28;20027;-82
2022/04/19 11:48:37;;;;;;;10.95;4.43;;;15.90;72.50;;;;;;5067329;28;20480;-79
2022/04/19 11:51:11;;;;;;;11.85;4.82;;;15.90;72.00;;;;;;5053049;28;20017;-82
2022/04/19 11:53:36;;;;;;;9.45;4.80;;;15.90;72.10;;;;;;5052999;28;20108;-81
2022/04/19 11:56:03;;;;;;;8.98;4.35;;;15.90;72.10;;;;;;5059790;28;20430;-80
2022/04/19 11:58:30;;;;;;;7.22;4.10;;;15.90;71.90;;;;;;5052733;28;20033;-81
2022/04/19 12:01:07;;;;;;;10.68;4.75;;;15.80;72.00;;;;;;5051313;28;20025;-80
2022/04/19 12:03:38;;;;;;;11.57;4.53;;;15.80;72.30;;;;;;5051981;28;20032;-79
2022/04/19 12:06:09;;;;;;;11.00;4.57;;;15.80;72.50;;;;;;5050045;28;20112;-81
2022/04/19 12:08:37;;;;;;;10.90;4.30;;;15.70;72.70;;;;;;5049840;28;20029;-81
2022/04/19 12:11:05;;;;;;;8.75;4.25;;;15.70;72.80;;;;;;5051418;28;20517;-80
2022/04/19 12:13:31;;;;;;;10.77;4.75;;;15.70;72.90;;;;;;5050322;28;20700;-83
2022/04/19 12:15:56;;;;;;;9.10;3.75;;;15.70;73.00;;;;;;5046445;28;20068;-81
2022/04/19 12:18:33;;;;;;;8.15;4.50;;;15.70;73.00;;;;;;5051461;28;20036;-81
2022/04/19 12:20:59;;;;;;;7.93;4.18;;;15.70;73.10;;;;;;5063864;28;20021;-81
2022/04/19 12:23:25;;;;;;;7.93;4.35;;;15.70;73.10;;;;;;5050644;28;20448;-81
2022/04/19 12:25:59;;;;;;;8.88;4.25;;;15.70;73.10;;;;;;5050042;28;20033;-80
2022/04/19 12:28:44;;;;;;;7.80;4.15;;;15.70;73.10;;;;;;5034420;28;20053;-78
2022/04/19 12:31:30;;;;;;;9.45;4.18;;;15.60;73.10;;;;;;5049041;28;20029;-81
2022/04/19 12:33:56;;;;;;;9.35;4.45;;;15.60;73.10;;;;;;5050691;28;20025;-81
2022/04/19 12:36:25;;;;;;;7.20;3.97;;;15.60;73.20;;;;;;5046534;28;20036;-81
2022/04/19 12:39:04;;;;;;;10.05;3.70;;;15.70;73.20;;;;;;5028349;28;20049;-81
2022/04/19 12:41:45;;;;;;;6.10;3.72;;;15.60;73.10;;;;;;5040810;28;20033;-81
2022/04/19 12:44:15;;;;;;;8.10;3.92;;;15.60;73.10;;;;;;5048466;28;20091;-80
2022/04/19 12:46:47;;;;;;;6.70;3.67;;;15.60;73.10;;;;;;5048008;28;20069;-81
2022/04/19 12:49:24;;;;;;;9.05;4.10;;;15.70;73.20;;;;;;5049938;28;20059;-81
2022/04/19 12:52:06;;;;;;;6.75;3.67;;;15.60;73.10;;;;;;5044613;28;20061;-78
2022/04/19 12:54:33;;;;;;;7.72;3.53;;;15.60;73.20;;;;;;5028894;28;20064;-80
2022/04/19 12:57:02;;;;;;;6.60;3.70;;;15.60;73.20;;;;;;5036789;28;20029;-80
2022/04/19 12:59:32;;;;;;;6.93;3.60;;;15.60;73.30;;;;;;5046972;28;20065;-79
2022/04/19 13:01:59;;;;;;;6.88;3.67;;;15.60;73.30;;;;;;5052595;28;20025;-79
2022/04/19 13:04:24;;;;;;;6.47;3.38;;;15.50;73.20;;;;;;5068496;28;20067;-81
2022/04/19 13:12:22;;;;;;;7.25;3.45;;;15.50;73.30;;;;;;5068765;28;20038;-80
2022/04/19 13:14:51;;;;;;;7.45;3.67;;;15.50;73.40;;;;;;5067143;28;20112;-78
2022/04/19 13:17:17;;;;;;;6.63;3.35;;;15.50;73.40;;;;;;5056365;28;20465;-81
2022/04/19 13:19:43;;;;;;;5.78;3.38;;;15.50;73.40;;;;;;5048647;28;20036;-80
2022/04/19 13:22:10;;;;;;;6.57;3.45;;;15.50;73.40;;;;;;5042605;28;20033;-78
2022/04/19 13:24:38;;;;;;;5.97;3.33;;;15.50;73.40;;;;;;5027303;28;20509;-80
2022/04/19 13:27:06;;;;;;;5.70;3.28;;;15.50;73.50;;;;;;5035845;28;20017;-80
2022/04/19 13:29:32;;;;;;;6.35;3.40;;;15.50;73.50;;;;;;5046545;28;20624;-78
2022/04/19 13:31:57;;;;;;;7.13;3.58;;;15.50;73.50;;;;;;5046951;28;20025;-81
2022/04/19 13:34:23;;;;;;;8.05;3.65;;;15.50;73.50;;;;;;5047887;28;20060;-80
2022/04/19 13:36:49;;;;;;;6.68;3.42;;;15.50;73.50;;;;;;5052262;28;20362;-81